Terminal Aerodrome Forecast
Issued by NWS

Home | Current Version | Previous Version | Text Only | Print | Product List | Glossary On
Versions: 1 2 3 4 5 6 7 8 9 10 11 12 13 14 15 16 17
000
FTAK31 PAJN 051100
TAFAGY
TAF
PAGY 051139Z 0512/0612 VRB04KT 4SM -RA BR BKN005 OVC010
     FM051700 VRB04KT P6SM VCSH BKN015 OVC040
     FM060000 VRB05KT P6SM -SHRA VCFG SCT015 BKN040
     FM060600 VRB05KT P6SM VCSH BKN050
      AMD LTD TO CLD VIS AND WIND=

USA.gov is the U.S. government's official web portal to all federal, state and local government web resources and services.